createdAt,value
2016-05-19T00:01:10.479Z,1007.08
2016-05-19T00:02:07.465Z,1007.12
2016-05-19T00:04:07.518Z,1007.11
2016-05-19T00:05:07.536Z,1007.08
2016-05-19T00:06:07.554Z,1007.1
2016-05-19T00:07:10.603Z,1007.09
2016-05-19T00:08:07.591Z,1007.08
2016-05-19T00:09:07.625Z,1007.1
2016-05-19T00:10:07.628Z,1007.06
2016-05-19T00:11:07.662Z,1007.04
2016-05-19T00:12:07.680Z,1007.04
2016-05-19T00:13:07.698Z,1006.99
2016-05-19T00:14:20.454Z,1007.03
2016-05-19T00:15:10.767Z,1007.01
2016-05-19T00:16:26.959Z,1007.02
2016-05-19T00:17:07.772Z,1006.99
2016-05-19T00:18:07.791Z,1006.98
2016-05-19T00:19:27.014Z,1007
2016-05-19T00:20:09.249Z,1007
2016-05-19T00:21:33.535Z,1006.98
2016-05-19T00:22:07.863Z,1006.96
2016-05-19T00:23:08.022Z,1006.97
2016-05-19T00:24:07.899Z,1006.95
2016-05-19T00:25:07.935Z,1006.96
2016-05-19T00:26:07.952Z,1006.95
2016-05-19T00:27:07.970Z,1006.95
2016-05-19T00:28:07.973Z,1006.97
2016-05-19T00:29:08.007Z,1006.94
2016-05-19T00:30:08.026Z,1006.95
2016-05-19T00:31:08.043Z,1006.94
2016-05-19T00:32:08.062Z,1006.96
2016-05-19T00:33:08.080Z,1006.96
2016-05-19T00:34:08.098Z,1006.94
2016-05-19T00:35:08.117Z,1006.93
2016-05-19T00:36:08.151Z,1006.95
2016-05-19T00:37:08.154Z,1006.96
2016-05-19T00:38:08.203Z,1006.97
2016-05-19T00:39:08.190Z,1006.93
2016-05-19T00:40:08.209Z,1006.94
2016-05-19T00:41:08.242Z,1006.9
2016-05-19T00:42:08.245Z,1006.94
2016-05-19T00:43:09.701Z,1006.91
2016-05-19T00:44:08.297Z,1006.91
2016-05-19T00:45:08.331Z,1006.93
2016-05-19T00:46:08.334Z,1006.95
2016-05-19T00:47:08.368Z,1006.96
2016-05-19T00:48:08.371Z,1006.93
2016-05-19T00:49:08.389Z,1006.93
2016-05-19T00:50:08.407Z,1006.91
2016-05-19T00:51:08.425Z,1006.92
2016-05-19T00:52:08.444Z,1006.91
2016-05-19T00:53:08.462Z,1006.9
2016-05-19T00:54:08.496Z,1006.9
2016-05-19T00:55:08.499Z,1006.88
2016-05-19T00:56:21.271Z,1006.91
2016-05-19T00:57:08.552Z,1006.91
2016-05-19T00:58:08.554Z,1006.92
2016-05-19T00:59:08.571Z,1006.89
2016-05-19T01:00:08.591Z,1006.88
2016-05-19T01:01:08.624Z,1006.88
2016-05-19T01:02:08.642Z,1006.87
2016-05-19T01:03:08.661Z,1006.85
2016-05-19T01:04:08.664Z,1006.85
2016-05-19T01:05:08.698Z,1006.86
2016-05-19T01:06:11.748Z,1006.85
2016-05-19T01:07:08.734Z,1006.82
2016-05-19T01:08:08.753Z,1006.88
2016-05-19T01:09:08.771Z,1006.85
2016-05-19T01:10:08.789Z,1006.85
2016-05-19T01:11:08.808Z,1006.84
2016-05-19T01:12:08.825Z,1006.87
2016-05-19T01:13:08.844Z,1006.85
2016-05-19T01:14:08.862Z,1006.83
2016-05-19T01:15:08.881Z,1006.85
2016-05-19T01:16:11.946Z,1006.81
2016-05-19T01:17:08.917Z,1006.83
2016-05-19T01:18:28.142Z,1006.82
2016-05-19T01:19:08.955Z,1006.81
2016-05-19T01:20:08.972Z,1006.79
2016-05-19T01:21:09.005Z,1006.79
2016-05-19T01:22:09.009Z,1006.81
2016-05-19T01:23:09.028Z,1006.77
2016-05-19T01:24:09.061Z,1006.77
2016-05-19T01:25:09.063Z,1006.77
2016-05-19T01:26:09.082Z,1006.73
2016-05-19T01:27:09.116Z,1006.75
2016-05-19T01:28:09.135Z,1006.74
2016-05-19T01:29:09.152Z,1006.72
2016-05-19T01:30:09.155Z,1006.74
2016-05-19T01:31:09.174Z,1006.73
2016-05-19T01:32:09.207Z,1006.75
2016-05-19T01:33:09.226Z,1006.72
2016-05-19T01:34:09.245Z,1006.72
2016-05-19T01:35:09.247Z,1006.74
2016-05-19T01:36:09.281Z,1006.74
2016-05-19T01:37:09.284Z,1006.76
2016-05-19T01:38:22.055Z,1006.71
2016-05-19T01:39:09.337Z,1006.76
2016-05-19T01:40:09.353Z,1006.73
2016-05-19T01:41:09.356Z,1006.74
2016-05-19T01:42:09.391Z,1006.78
2016-05-19T01:43:09.409Z,1006.84
2016-05-19T01:44:09.428Z,1006.82
2016-05-19T01:45:09.446Z,1006.88
2016-05-19T01:46:09.464Z,1006.88
2016-05-19T01:47:09.483Z,1006.83
2016-05-19T01:48:09.500Z,1006.89
2016-05-19T01:49:09.519Z,1006.94
2016-05-19T01:50:09.538Z,1006.95
2016-05-19T01:51:09.556Z,1006.91
2016-05-19T01:52:09.574Z,1006.91
2016-05-19T01:54:24.832Z,1006.83
2016-05-19T01:55:24.850Z,1006.87
2016-05-19T01:56:24.869Z,1006.87
2016-05-19T01:57:24.887Z,1006.9
2016-05-19T01:58:24.905Z,1006.88
2016-05-19T01:59:24.924Z,1006.88
2016-05-19T02:00:24.942Z,1006.88
2016-05-19T02:01:24.960Z,1006.85
2016-05-19T02:02:24.993Z,1006.85
2016-05-19T02:03:24.996Z,1006.8
2016-05-19T02:04:25.016Z,1006.8
2016-05-19T02:05:25.034Z,1006.78
2016-05-19T02:06:25.051Z,1006.77
2016-05-19T02:07:25.070Z,1006.81
2016-05-19T02:08:25.089Z,1006.78
2016-05-19T02:09:37.842Z,1006.74
2016-05-19T02:10:25.126Z,1006.75
2016-05-19T02:11:25.159Z,1006.75
2016-05-19T02:12:25.162Z,1006.73
2016-05-19T02:13:25.196Z,1006.76
2016-05-19T02:14:37.933Z,1006.71
2016-05-19T02:15:25.217Z,1006.71
2016-05-19T02:16:25.250Z,1006.75
2016-05-19T02:17:25.253Z,1006.75
2016-05-19T02:18:25.272Z,1006.76
2016-05-19T02:19:34.914Z,1006.79
2016-05-19T02:20:34.933Z,1006.8
2016-05-19T02:21:34.952Z,1006.76
2016-05-19T02:22:34.969Z,1006.78
2016-05-19T02:23:35.004Z,1006.81
2016-05-19T02:24:47.749Z,1006.86
2016-05-19T02:25:35.033Z,1006.89
2016-05-19T02:26:35.051Z,1006.87
2016-05-19T02:28:35.088Z,1006.89
2016-05-19T02:29:35.106Z,1006.88
2016-05-19T02:30:35.124Z,1006.88
2016-05-19T02:31:35.143Z,1006.88
2016-05-19T02:32:35.160Z,1006.86
2016-05-19T02:33:38.210Z,1006.85
2016-05-19T02:34:35.198Z,1006.85
2016-05-19T02:35:35.216Z,1006.85
2016-05-19T02:36:35.234Z,1006.86
2016-05-19T02:37:35.252Z,1006.83
2016-05-19T02:38:35.271Z,1006.87
2016-05-19T02:39:35.289Z,1006.88
2016-05-19T02:40:48.085Z,1006.89
2016-05-19T02:41:35.397Z,1006.85
2016-05-19T02:42:35.459Z,1006.85
2016-05-19T02:43:35.521Z,1006.88
2016-05-19T02:44:35.583Z,1006.82
2016-05-19T02:45:35.625Z,1006.89
2016-05-19T02:46:35.660Z,1006.88
2016-05-19T02:47:35.693Z,1006.87
2016-05-19T02:48:48.462Z,1006.9
2016-05-19T02:49:54.964Z,1006.94
2016-05-19T02:50:35.772Z,1006.9
2016-05-19T02:51:35.812Z,1006.92
2016-05-19T02:52:37.243Z,1006.92
2016-05-19T02:53:35.844Z,1006.92
2016-05-19T02:54:35.884Z,1006.91
2016-05-19T02:55:35.890Z,1006.9
2016-05-19T02:56:36.020Z,1006.92
2016-05-19T02:57:35.946Z,1006.91
2016-05-19T02:58:35.967Z,1006.89
2016-05-19T02:59:35.987Z,1006.93
2016-05-19T03:00:35.991Z,1006.9
2016-05-19T03:01:36.010Z,1006.9
2016-05-19T03:02:36.028Z,1006.89
2016-05-19T03:03:36.064Z,1006.94
2016-05-19T03:04:36.067Z,1006.9
2016-05-19T03:05:36.086Z,1006.92
2016-05-19T03:06:55.324Z,1006.92
2016-05-19T03:07:48.873Z,1006.91
2016-05-19T03:08:36.142Z,1006.96
2016-05-19T03:09:55.379Z,1006.99
2016-05-19T03:10:36.178Z,1006.94
2016-05-19T03:11:36.244Z,1006.96
2016-05-19T03:12:36.216Z,1007.01
2016-05-19T03:13:36.250Z,1006.97
2016-05-19T03:14:36.253Z,1007.02
2016-05-19T03:15:36.271Z,1007.02
2016-05-19T03:16:36.289Z,1007.07
2016-05-19T03:17:36.308Z,1007.07
2016-05-19T03:18:36.325Z,1007.07
2016-05-19T03:20:51.581Z,1007.07
2016-05-19T03:21:51.599Z,1007.07
2016-05-19T03:22:51.618Z,1007.04
2016-05-19T03:23:54.948Z,1007.09
2016-05-19T03:24:51.654Z,1007.15
2016-05-19T03:25:51.673Z,1007.18
2016-05-19T03:26:51.690Z,1007.21
2016-05-19T03:27:51.709Z,1007.16
2016-05-19T03:28:51.727Z,1007.18
2016-05-19T03:29:51.730Z,1007.1
2016-05-19T03:30:51.764Z,1007.09
2016-05-19T03:31:51.782Z,1007.13
2016-05-19T03:32:51.801Z,1007.16
2016-05-19T03:33:51.835Z,1007.17
2016-05-19T03:34:51.838Z,1007.19
2016-05-19T03:35:51.856Z,1007.19
2016-05-19T03:36:51.874Z,1007.18
2016-05-19T03:38:04.626Z,1007.21
2016-05-19T03:38:51.894Z,1007.21
2016-05-19T03:41:01.400Z,1007.19
2016-05-19T03:42:01.419Z,1007.21
2016-05-19T03:43:01.436Z,1007.14
2016-05-19T03:44:01.471Z,1007.17
2016-05-19T03:45:01.474Z,1007.18
2016-05-19T03:46:01.491Z,1007.19
2016-05-19T03:47:14.244Z,1007.2
2016-05-19T03:48:01.528Z,1007.15
2016-05-19T03:49:01.547Z,1007.22
2016-05-19T03:50:01.566Z,1007.22
2016-05-19T03:51:01.583Z,1007.21
2016-05-19T03:52:01.602Z,1007.22
2016-05-19T03:53:04.652Z,1007.24
2016-05-19T03:54:14.374Z,1007.29
2016-05-19T03:55:07.922Z,1007.23
2016-05-19T03:56:01.675Z,1007.25
2016-05-19T03:57:01.693Z,1007.24
2016-05-19T03:58:01.727Z,1007.22
2016-05-19T03:59:01.730Z,1007.21
2016-05-19T04:00:01.748Z,1007.21
2016-05-19T04:01:01.767Z,1007.24
2016-05-19T04:02:14.519Z,1007.21
2016-05-19T04:03:01.803Z,1007.24
2016-05-19T04:04:01.821Z,1007.27
2016-05-19T04:05:01.840Z,1007.26
2016-05-19T04:06:01.858Z,1007.28
2016-05-19T04:07:01.876Z,1007.29
2016-05-19T04:08:01.895Z,1007.27
2016-05-19T04:09:01.914Z,1007.29
2016-05-19T04:10:01.932Z,1007.29
2016-05-19T04:11:21.153Z,1007.26
2016-05-19T04:12:01.968Z,1007.32
2016-05-19T04:13:01.987Z,1007.29
2016-05-19T04:14:11.614Z,1007.32
2016-05-19T04:15:11.632Z,1007.36
2016-05-19T04:16:11.650Z,1007.33
2016-05-19T04:17:24.403Z,1007.33
2016-05-19T04:18:24.422Z,1007.35
2016-05-19T04:19:11.705Z,1007.35
2016-05-19T04:20:11.739Z,1007.36
2016-05-19T04:21:14.773Z,1007.37
2016-05-19T04:22:11.760Z,1007.35
2016-05-19T04:23:11.779Z,1007.38
2016-05-19T04:24:14.829Z,1007.36
2016-05-19T04:26:11.834Z,1007.4
2016-05-19T04:27:11.852Z,1007.37
2016-05-19T04:28:11.871Z,1007.4
2016-05-19T04:29:11.889Z,1007.39
2016-05-19T04:30:11.923Z,1007.38
2016-05-19T04:31:11.926Z,1007.4
2016-05-19T04:32:11.944Z,1007.42
2016-05-19T04:33:31.168Z,1007.46
2016-05-19T04:34:15.137Z,1007.48
2016-05-19T04:35:34.361Z,1007.45
2016-05-19T04:36:55.895Z,1007.43
2016-05-19T04:37:49.631Z,1007.4
2016-05-19T04:38:49.870Z,1007.48
2016-05-19T04:39:49.684Z,1007.42
2016-05-19T04:40:49.702Z,1007.44
2016-05-19T04:41:49.721Z,1007.46
2016-05-19T04:42:49.739Z,1007.46
2016-05-19T04:43:49.758Z,1007.44
2016-05-19T04:44:49.775Z,1007.45
2016-05-19T04:46:08.997Z,1007.48
2016-05-19T04:47:24.890Z,1007.52
2016-05-19T04:48:18.440Z,1007.52
2016-05-19T04:49:33.586Z,1007.53
2016-05-19T04:50:33.605Z,1007.57
2016-05-19T04:51:33.638Z,1007.57
2016-05-19T04:52:33.657Z,1007.56
2016-05-19T04:53:33.659Z,1007.57
2016-05-19T04:54:33.694Z,1007.57
2016-05-19T04:55:46.446Z,1007.58
2016-05-19T04:56:33.713Z,1007.61
2016-05-19T04:57:33.733Z,1007.62
2016-05-19T04:58:33.766Z,1007.65
2016-05-19T04:59:33.785Z,1007.64
2016-05-19T05:00:33.804Z,1007.7
2016-05-19T05:01:33.821Z,1007.73
2016-05-19T05:02:33.840Z,1007.71
2016-05-19T05:03:53.061Z,1007.76
2016-05-19T05:04:33.876Z,1007.74
2016-05-19T05:06:59.585Z,1007.76
2016-05-19T05:07:33.931Z,1007.8
2016-05-19T05:09:33.968Z,1007.78
2016-05-19T05:10:33.986Z,1007.81
2016-05-19T05:11:46.754Z,1007.81
2016-05-19T05:12:34.039Z,1007.82
2016-05-19T05:13:34.057Z,1007.79
2016-05-19T05:14:34.075Z,1007.78
2016-05-19T05:15:34.094Z,1007.77
2016-05-19T05:16:34.112Z,1007.8
2016-05-19T05:17:34.130Z,1007.82
2016-05-19T05:18:46.883Z,1007.88
2016-05-19T05:19:34.167Z,1007.92
2016-05-19T05:20:53.388Z,1007.9
2016-05-19T05:21:34.203Z,1007.93
2016-05-19T05:22:59.893Z,1007.91
2016-05-19T05:23:34.255Z,1007.98
2016-05-19T05:24:34.259Z,1007.95
2016-05-19T05:25:49.511Z,1007.9
2016-05-19T05:26:49.529Z,1007.95
2016-05-19T05:27:49.547Z,1007.94
2016-05-19T05:28:49.582Z,1007.97
2016-05-19T05:29:49.585Z,1007.96
2016-05-19T05:31:08.837Z,1007.98
2016-05-19T05:31:49.637Z,1008.01
2016-05-19T05:32:49.640Z,1008.03
2016-05-19T05:33:49.673Z,1008.04
2016-05-19T05:34:49.691Z,1008.07
2016-05-19T05:35:49.710Z,1008.1
2016-05-19T05:36:49.728Z,1008.07
2016-05-19T05:37:49.746Z,1008.13
2016-05-19T05:39:02.499Z,1008.12
2016-05-19T05:39:49.799Z,1008.13
2016-05-19T05:40:49.817Z,1008.15
2016-05-19T05:41:49.835Z,1008.19
2016-05-19T05:42:49.854Z,1008.16
2016-05-19T05:43:49.888Z,1008.17
2016-05-19T05:44:49.906Z,1008.16
2016-05-19T05:45:49.925Z,1008.16
2016-05-19T05:46:49.942Z,1008.22
2016-05-19T05:47:49.961Z,1008.22
2016-05-19T05:48:49.978Z,1008.24
2016-05-19T05:50:05.514Z,1008.29
2016-05-19T05:50:59.203Z,1008.26
2016-05-19T05:51:59.284Z,1008.22
2016-05-19T05:52:59.709Z,1008.24
2016-05-19T05:53:59.477Z,1008.27
2016-05-19T05:54:59.308Z,1008.25
2016-05-19T05:55:59.327Z,1008.29
2016-05-19T05:57:18.547Z,1008.3
2016-05-19T05:57:59.378Z,1008.33
2016-05-19T05:59:25.052Z,1008.32
2016-05-19T06:00:09.055Z,1008.35
2016-05-19T06:01:09.074Z,1008.33
2016-05-19T06:02:09.108Z,1008.36
2016-05-19T06:03:09.127Z,1008.35
2016-05-19T06:04:09.301Z,1008.33
2016-05-19T06:05:09.272Z,1008.38
2016-05-19T06:06:09.291Z,1008.39
2016-05-19T06:07:09.340Z,1008.42
2016-05-19T06:08:09.280Z,1008.41
2016-05-19T06:09:09.314Z,1008.4
2016-05-19T06:10:09.285Z,1008.38
2016-05-19T06:11:09.367Z,1008.38
2016-05-19T06:12:09.322Z,1008.4
2016-05-19T06:13:10.762Z,1008.38
2016-05-19T06:14:09.375Z,1008.41
2016-05-19T06:15:09.393Z,1008.38
2016-05-19T06:16:09.427Z,1008.42
2016-05-19T06:17:09.445Z,1008.42
2016-05-19T06:18:09.479Z,1008.45
2016-05-19T06:19:10.903Z,1008.47
2016-05-19T06:20:09.516Z,1008.51
2016-05-19T06:21:09.533Z,1008.53
2016-05-19T06:22:09.553Z,1008.56
2016-05-19T06:23:09.570Z,1008.58
2016-05-19T06:24:28.792Z,1008.62
2016-05-19T06:25:09.623Z,1008.59
2016-05-19T06:26:35.316Z,1008.6
2016-05-19T06:27:11.081Z,1008.58
2016-05-19T06:28:09.693Z,1008.63
2016-05-19T06:29:28.915Z,1008.59
2016-05-19T06:30:12.746Z,1008.62
2016-05-19T06:31:12.763Z,1008.65
2016-05-19T06:32:12.783Z,1008.65
2016-05-19T06:33:15.988Z,1008.64
2016-05-19T06:34:12.819Z,1008.68
2016-05-19T06:35:12.900Z,1008.68
2016-05-19T06:36:12.887Z,1008.69
2016-05-19T06:37:12.905Z,1008.7
2016-05-19T06:38:25.642Z,1008.69
2016-05-19T06:39:12.942Z,1008.72
2016-05-19T06:40:12.960Z,1008.71
2016-05-19T06:41:12.994Z,1008.74
2016-05-19T06:43:13.031Z,1008.79
2016-05-19T06:44:13.065Z,1008.74
2016-05-19T06:45:13.115Z,1008.78
2016-05-19T06:46:13.117Z,1008.79
2016-05-19T06:47:13.135Z,1008.81
2016-05-19T06:48:25.888Z,1008.78
2016-05-19T06:49:13.172Z,1008.78
2016-05-19T06:50:13.205Z,1008.84
2016-05-19T06:51:22.833Z,1008.8
2016-05-19T06:52:22.852Z,1008.85
2016-05-19T06:53:35.623Z,1008.84
2016-05-19T06:54:22.904Z,1008.88
2016-05-19T06:55:22.922Z,1008.9
2016-05-19T06:56:22.972Z,1008.94
2016-05-19T06:57:35.712Z,1008.98
2016-05-19T06:58:23.009Z,1008.97
2016-05-19T06:59:23.026Z,1009.01
2016-05-19T07:00:23.045Z,1008.99
2016-05-19T07:01:23.063Z,1008.99
2016-05-19T07:02:23.097Z,1009.01
2016-05-19T07:03:23.115Z,1009.01
2016-05-19T07:04:23.134Z,1009.04
2016-05-19T07:05:23.168Z,1009.03
2016-05-19T07:06:23.186Z,1009.07
2016-05-19T07:07:23.220Z,1009.09
2016-05-19T07:08:23.238Z,1009.11
2016-05-19T07:09:24.679Z,1009.07
2016-05-19T07:10:36.028Z,1009.09
2016-05-19T07:11:23.324Z,1009.12
2016-05-19T07:12:23.327Z,1009.11
2016-05-19T07:13:24.798Z,1009.16
2016-05-19T07:14:23.379Z,1009.13
2016-05-19T07:15:38.650Z,1009.16
2016-05-19T07:16:38.669Z,1009.2
2016-05-19T07:17:40.109Z,1009.2
2016-05-19T07:18:38.706Z,1009.21
2016-05-19T07:19:38.755Z,1009.25
2016-05-19T07:20:38.867Z,1009.25
2016-05-19T07:21:38.792Z,1009.33
2016-05-19T07:22:38.810Z,1009.34
2016-05-19T07:23:38.844Z,1009.38
2016-05-19T07:24:40.284Z,1009.43
2016-05-19T07:25:38.897Z,1009.46
2016-05-19T07:26:38.914Z,1009.46
2016-05-19T07:27:38.933Z,1009.52
2016-05-19T07:28:38.967Z,1009.53
2016-05-19T07:29:39.001Z,1009.57
2016-05-19T07:30:39.019Z,1009.52
2016-05-19T07:31:39.053Z,1009.59
2016-05-19T07:32:39.071Z,1009.59
2016-05-19T07:33:39.105Z,1009.76
2016-05-19T07:34:51.858Z,1009.79
2016-05-19T07:35:39.158Z,1009.56
2016-05-19T07:36:39.191Z,1009.56
2016-05-19T07:37:39.210Z,1009.51
2016-05-19T07:38:39.259Z,1009.51
2016-05-19T07:39:39.277Z,1009.56
2016-05-19T07:40:39.296Z,1009.58
2016-05-19T07:41:39.329Z,1009.58
2016-05-19T07:42:58.567Z,1009.65
2016-05-19T07:43:42.429Z,1009.66
2016-05-19T07:44:42.447Z,1009.75
2016-05-19T07:45:42.482Z,1009.78
2016-05-19T07:47:42.548Z,1009.77
2016-05-19T07:48:42.568Z,1009.84
2016-05-19T07:49:42.602Z,1009.9
2016-05-19T07:51:01.839Z,1009.86
2016-05-19T07:52:42.687Z,1009.91
2016-05-19T07:53:42.722Z,1009.88
2016-05-19T07:54:42.755Z,1009.9
2016-05-19T07:55:42.805Z,1009.9
2016-05-19T07:57:02.027Z,1009.89
2016-05-19T07:57:42.858Z,1009.88
2016-05-19T07:58:42.891Z,1009.87
2016-05-19T07:59:42.925Z,1009.86
2016-05-19T08:00:42.959Z,1009.87
2016-05-19T08:01:42.993Z,1009.79
2016-05-19T08:02:43.027Z,1009.82
2016-05-19T08:03:55.795Z,1009.84
2016-05-19T08:05:43.129Z,1009.81
2016-05-19T08:06:43.163Z,1009.78
2016-05-19T08:07:43.197Z,1009.78
2016-05-19T08:08:43.247Z,1009.73
2016-05-19T08:09:46.296Z,1009.68
2016-05-19T08:10:43.299Z,1009.65
2016-05-19T08:12:02.692Z,1009.63
2016-05-19T08:12:43.366Z,1009.67
2016-05-19T08:13:43.401Z,1009.66
2016-05-19T08:14:43.434Z,1009.68
2016-05-19T08:15:43.468Z,1009.68
2016-05-19T08:16:43.487Z,1009.67
2016-05-19T08:18:02.740Z,1009.7
2016-05-19T08:18:43.570Z,1009.68
2016-05-19T08:19:43.604Z,1009.7
2016-05-19T08:20:45.044Z,1009.71
2016-05-19T08:21:43.656Z,1009.75
2016-05-19T08:22:43.690Z,1009.71
2016-05-19T08:23:43.724Z,1009.71
2016-05-19T08:24:43.758Z,1009.75
2016-05-19T08:25:43.791Z,1009.74
2016-05-19T08:26:43.810Z,1009.75
2016-05-19T08:27:43.860Z,1009.74
2016-05-19T08:28:43.878Z,1009.76
2016-05-19T08:29:43.912Z,1009.73
2016-05-19T08:30:56.680Z,1009.73
2016-05-19T08:31:43.964Z,1009.77
2016-05-19T08:32:43.999Z,1009.73
2016-05-19T08:34:44.051Z,1009.73
2016-05-19T08:35:44.085Z,1009.76
2016-05-19T08:36:44.213Z,1009.78
2016-05-19T08:38:03.355Z,1009.79
2016-05-19T08:38:44.280Z,1009.79
2016-05-19T08:40:09.876Z,1009.81
2016-05-19T08:40:44.238Z,1009.8
2016-05-19T08:41:44.273Z,1009.79
2016-05-19T08:42:53.807Z,1009.76
2016-05-19T08:43:53.841Z,1009.78
2016-05-19T08:44:53.859Z,1009.76
2016-05-19T08:45:53.893Z,1009.8
2016-05-19T08:46:53.911Z,1009.8
2016-05-19T08:47:53.960Z,1009.82
2016-05-19T08:48:53.978Z,1009.81
2016-05-19T08:49:54.012Z,1009.83
2016-05-19T08:50:54.031Z,1009.82
2016-05-19T08:51:54.065Z,1009.85
2016-05-19T08:52:54.083Z,1009.84
2016-05-19T08:53:54.242Z,1009.82
2016-05-19T08:54:54.167Z,1009.87
2016-05-19T08:56:06.904Z,1009.9
2016-05-19T08:56:57.219Z,1009.91
2016-05-19T08:57:54.222Z,1009.93
2016-05-19T08:59:13.458Z,1009.96
2016-05-19T08:59:54.274Z,1009.95
2016-05-19T09:01:07.042Z,1009.97
2016-05-19T09:01:54.327Z,1009.96
2016-05-19T09:02:54.361Z,1010.03
2016-05-19T09:03:54.394Z,1010.01
2016-05-19T09:05:07.210Z,1010.04
2016-05-19T09:05:54.447Z,1010.05
2016-05-19T09:06:54.465Z,1010.07
2016-05-19T09:08:10.685Z,1010.02
2016-05-19T09:09:11.001Z,1010
2016-05-19T09:10:10.691Z,1010.01
2016-05-19T09:11:10.460Z,1010.01
2016-05-19T09:12:23.431Z,1010.02
2016-05-19T09:13:10.513Z,1010.04
2016-05-19T09:14:36.312Z,1010.06
2016-05-19T09:15:10.564Z,1010.04
2016-05-19T09:16:10.599Z,1010.02
2016-05-19T09:17:10.632Z,1010.04
2016-05-19T09:18:10.760Z,1010.08
2016-05-19T09:19:29.887Z,1010.1
2016-05-19T09:20:10.704Z,1010.12
2016-05-19T09:22:10.770Z,1010.11
2016-05-19T09:23:10.836Z,1010.11
2016-05-19T09:24:10.964Z,1010.04
2016-05-19T09:25:10.842Z,1010.09
2016-05-19T09:26:10.875Z,1010.1
2016-05-19T09:27:10.894Z,1010.15
2016-05-19T09:28:10.927Z,1010.15
2016-05-19T09:29:10.961Z,1010.18
2016-05-19T09:30:30.230Z,1010.22
2016-05-19T09:31:10.998Z,1010.18
2016-05-19T09:33:11.066Z,1010.21
2016-05-19T09:34:11.084Z,1010.24
2016-05-19T09:35:11.102Z,1010.22
2016-05-19T09:36:11.136Z,1010.21
2016-05-19T09:37:11.170Z,1010.2
2016-05-19T09:38:11.189Z,1010.21
2016-05-19T09:39:36.895Z,1010.21
2016-05-19T09:40:12.663Z,1010.23
2016-05-19T09:41:11.275Z,1010.23
2016-05-19T09:42:11.293Z,1010.21
2016-05-19T09:43:11.327Z,1010.27
2016-05-19T09:44:11.346Z,1010.24
2016-05-19T09:45:24.113Z,1010.23
2016-05-19T09:46:11.398Z,1010.26
2016-05-19T09:47:11.432Z,1010.29
2016-05-19T09:48:11.451Z,1010.26
2016-05-19T09:49:11.484Z,1010.31
2016-05-19T09:50:30.706Z,1010.33
2016-05-19T09:51:11.537Z,1010.31
2016-05-19T09:52:11.554Z,1010.31
2016-05-19T09:53:11.589Z,1010.3
2016-05-19T09:54:24.357Z,1010.33
2016-05-19T09:55:24.375Z,1010.37
2016-05-19T09:56:11.675Z,1010.36
2016-05-19T09:57:11.693Z,1010.34
2016-05-19T09:58:11.727Z,1010.36
2016-05-19T09:59:11.745Z,1010.32
2016-05-19T10:00:11.764Z,1010.35
2016-05-19T10:01:11.797Z,1010.37
2016-05-19T10:02:11.831Z,1010.4
2016-05-19T10:03:11.850Z,1010.39
2016-05-19T10:04:11.884Z,1010.44
2016-05-19T10:05:37.589Z,1010.44
2016-05-19T10:06:11.936Z,1010.43
2016-05-19T10:07:11.955Z,1010.47
2016-05-19T10:08:11.989Z,1010.48
2016-05-19T10:09:12.007Z,1010.52
2016-05-19T10:10:12.041Z,1010.5
2016-05-19T10:11:12.090Z,1010.48
2016-05-19T10:12:12.093Z,1010.53
2016-05-19T10:13:12.127Z,1010.49
2016-05-19T10:14:12.146Z,1010.55
2016-05-19T10:15:12.163Z,1010.51
2016-05-19T10:16:12.197Z,1010.5
2016-05-19T10:17:12.232Z,1010.53
2016-05-19T10:18:12.249Z,1010.56
2016-05-19T10:19:25.049Z,1010.59
2016-05-19T10:20:12.302Z,1010.58
2016-05-19T10:21:12.336Z,1010.53
2016-05-19T10:22:15.526Z,1010.55
2016-05-19T10:23:15.560Z,1010.5
2016-05-19T10:24:18.609Z,1010.5
2016-05-19T10:26:30.928Z,1010.54
2016-05-19T10:27:30.993Z,1010.6
2016-05-19T10:28:50.123Z,1010.58
2016-05-19T10:29:31.092Z,1010.56
2016-05-19T10:30:30.970Z,1010.59
2016-05-19T10:31:50.272Z,1010.6
2016-05-19T10:32:31.037Z,1010.6
2016-05-19T10:33:31.056Z,1010.56
2016-05-19T10:34:32.528Z,1010.59
2016-05-19T10:35:43.842Z,1010.58
2016-05-19T10:36:31.158Z,1010.61
2016-05-19T10:37:31.175Z,1010.64
2016-05-19T10:38:31.194Z,1010.65
2016-05-19T10:39:31.228Z,1010.65
2016-05-19T10:40:46.327Z,1010.67
2016-05-19T10:41:46.361Z,1010.68
2016-05-19T10:42:46.395Z,1010.73
2016-05-19T10:43:46.413Z,1010.66
2016-05-19T10:45:05.650Z,1010.69
2016-05-19T10:45:46.466Z,1010.71
2016-05-19T10:47:46.518Z,1010.73
2016-05-19T10:48:46.599Z,1010.73
2016-05-19T10:50:01.710Z,1010.68
2016-05-19T10:51:01.745Z,1010.71
2016-05-19T10:52:04.810Z,1010.72
2016-05-19T10:53:14.313Z,1010.77
2016-05-19T10:54:14.331Z,1010.79
2016-05-19T10:55:23.849Z,1010.78
2016-05-19T10:56:23.884Z,1010.8
2016-05-19T10:57:23.901Z,1010.82
2016-05-19T10:58:36.669Z,1010.86
2016-05-19T10:59:23.970Z,1010.87
2016-05-19T11:00:49.662Z,1010.86
2016-05-19T11:01:25.428Z,1010.85
2016-05-19T11:02:24.056Z,1010.85
2016-05-19T11:03:24.073Z,1010.85
2016-05-19T11:04:36.858Z,1010.81
2016-05-19T11:05:24.125Z,1010.86
2016-05-19T11:06:49.834Z,1010.84
2016-05-19T11:07:33.788Z,1010.85
2016-05-19T11:08:33.822Z,1010.89
2016-05-19T11:09:33.840Z,1010.93
2016-05-19T11:10:33.874Z,1010.91
2016-05-19T11:11:33.907Z,1010.96
2016-05-19T11:12:46.680Z,1010.96
2016-05-19T11:13:33.961Z,1010.92
2016-05-19T11:14:33.994Z,1010.89
2016-05-19T11:15:34.013Z,1010.91
2016-05-19T11:16:34.062Z,1010.96
2016-05-19T11:17:34.080Z,1010.93
2016-05-19T11:18:34.113Z,1010.94
2016-05-19T11:19:34.132Z,1010.91
2016-05-19T11:20:34.166Z,1010.91
2016-05-19T11:21:34.216Z,1010.88
2016-05-19T11:22:34.234Z,1010.9
2016-05-19T11:23:34.362Z,1010.84
2016-05-19T11:24:34.287Z,1010.85
2016-05-19T11:25:35.727Z,1010.87
2016-05-19T11:26:34.354Z,1010.89
2016-05-19T11:27:47.110Z,1010.89
2016-05-19T11:28:34.407Z,1010.85
2016-05-19T11:29:34.441Z,1010.86
2016-05-19T11:30:34.475Z,1010.86
2016-05-19T11:31:34.618Z,1010.85
2016-05-19T11:34:15.438Z,1010.87
2016-05-19T11:34:49.800Z,1010.83
2016-05-19T11:35:49.834Z,1010.77
2016-05-19T11:36:49.869Z,1010.79
2016-05-19T11:37:49.886Z,1010.78
2016-05-19T11:38:49.920Z,1010.81
2016-05-19T11:39:49.938Z,1010.79
2016-05-19T11:40:49.972Z,1010.8
2016-05-19T11:41:50.008Z,1010.83
2016-05-19T11:42:50.041Z,1010.83
2016-05-19T11:43:50.058Z,1010.76
2016-05-19T11:45:09.296Z,1010.77
2016-05-19T11:45:50.111Z,1010.78
2016-05-19T11:47:59.741Z,1010.76
2016-05-19T11:48:59.784Z,1010.78
2016-05-19T11:49:59.859Z,1010.82
2016-05-19T11:50:59.917Z,1010.83
2016-05-19T11:51:59.968Z,1010.83
2016-05-19T11:53:00.017Z,1010.8
2016-05-19T11:54:00.065Z,1010.87
2016-05-19T11:55:00.097Z,1010.88
2016-05-19T11:56:12.880Z,1010.91
2016-05-19T11:57:00.186Z,1010.92
2016-05-19T11:58:00.210Z,1010.9
2016-05-19T11:59:00.249Z,1010.92
2016-05-19T12:00:00.289Z,1010.93
2016-05-19T12:01:00.313Z,1010.94
2016-05-19T12:02:00.349Z,1010.94
2016-05-19T12:03:00.384Z,1010.89
2016-05-19T12:04:00.404Z,1010.94
2016-05-19T12:05:00.440Z,1010.93
2016-05-19T12:06:00.461Z,1010.98
2016-05-19T12:07:00.495Z,1010.96
2016-05-19T12:09:16.002Z,1011
2016-05-19T12:10:16.021Z,1011.02
2016-05-19T12:11:16.056Z,1010.97
2016-05-19T12:12:16.090Z,1010.97
2016-05-19T12:13:16.109Z,1010.92
2016-05-19T12:14:16.127Z,1010.95
2016-05-19T12:15:42.849Z,1010.92
2016-05-19T12:16:16.197Z,1010.9
2016-05-19T12:18:28.999Z,1010.93
2016-05-19T12:19:16.283Z,1010.9
2016-05-19T12:20:16.316Z,1010.91
2016-05-19T12:21:29.068Z,1010.92
2016-05-19T12:22:42.040Z,1010.93
2016-05-19T12:23:16.402Z,1010.94
2016-05-19T12:25:19.892Z,1010.91
2016-05-19T12:26:19.895Z,1010.94
2016-05-19T12:27:19.929Z,1010.98
2016-05-19T12:28:19.963Z,1010.95
2016-05-19T12:29:19.996Z,1010.95
2016-05-19T12:30:20.031Z,1010.98
2016-05-19T12:31:20.049Z,1011
2016-05-19T12:32:20.084Z,1010.98
2016-05-19T12:33:20.101Z,1011
2016-05-19T12:34:20.135Z,1011
2016-05-19T12:35:20.169Z,1010.98
2016-05-19T12:36:20.203Z,1010.97
2016-05-19T12:37:20.222Z,1010.99